sim
Sign-in with your pilot id or email,
or register
Callsign
Passwort

Schedule Details

Flight Number: OEO6152
Departure: Munich Airport (EDDM) at 08:20
Arrival: Dallas Fort Worth International Airport (KDFW) at 20:35

Weather Information
Getting current METAR information for EDDM 210520Z VRB01KT 9999 1500NE R08L/0650N BCFG NSC 07/07 Q1016 NOSIG
Getting current METAR information for KDFW 210453Z 08009KT 10SM BKN060 BKN250 24/17 A3011 RMK AO2 SLP187 T02390167

Schedule Frequency

Route Map